createdAt,value
2023-01-05T00:01:29.416Z,0.50
2023-01-05T00:03:57.699Z,0.40
2023-01-05T00:06:25.642Z,0.68
2023-01-05T00:08:54.860Z,0.30
2023-01-05T00:11:42.565Z,0.60
2023-01-05T00:14:32.331Z,0.60
2023-01-05T00:17:17.942Z,0.60
2023-01-05T00:20:03.337Z,0.60
2023-01-05T00:22:32.701Z,0.52
2023-01-05T00:25:11.228Z,0.65
2023-01-05T00:27:41.004Z,0.40
2023-01-05T00:30:10.686Z,0.50
2023-01-05T00:32:38.645Z,0.40
2023-01-05T00:35:06.950Z,0.50
2023-01-05T00:37:36.269Z,0.60
2023-01-05T00:40:06.436Z,0.40
2023-01-05T00:42:34.281Z,0.60
2023-01-05T00:45:02.184Z,0.50
2023-01-05T00:47:30.106Z,0.50
2023-01-05T00:49:58.019Z,0.50
2023-01-05T00:52:25.951Z,0.30
2023-01-05T00:54:53.883Z,0.40
2023-01-05T00:57:23.037Z,0.40
2023-01-05T00:59:50.910Z,0.40
2023-01-05T01:02:18.948Z,0.30
2023-01-05T01:04:46.889Z,0.40
2023-01-05T01:07:14.750Z,0.57
2023-01-05T01:09:42.622Z,0.60
2023-01-05T01:12:10.531Z,0.40
2023-01-05T01:14:40.562Z,0.40
2023-01-05T01:17:08.586Z,0.40
2023-01-05T01:19:36.499Z,0.30
2023-01-05T01:22:04.344Z,0.35
2023-01-05T01:24:32.299Z,0.40
2023-01-05T01:27:00.216Z,0.47
2023-01-05T01:29:28.270Z,0.30
2023-01-05T01:31:57.479Z,0.40
2023-01-05T01:34:25.478Z,0.45
2023-01-05T01:36:56.353Z,0.40
2023-01-05T01:39:24.587Z,0.30
2023-01-05T01:41:52.468Z,0.40
2023-01-05T01:44:53.131Z,0.40
2023-01-05T01:47:31.391Z,0.38
2023-01-05T01:50:02.197Z,0.30
2023-01-05T01:52:32.080Z,0.30
2023-01-05T01:55:01.974Z,0.30
2023-01-05T01:57:30.565Z,0.40
2023-01-05T02:00:01.126Z,0.40
2023-01-05T02:02:31.223Z,0.20
2023-01-05T02:05:05.554Z,0.43
2023-01-05T02:07:35.688Z,0.20
2023-01-05T02:10:05.392Z,0.20
2023-01-05T02:12:44.849Z,0.30
2023-01-05T02:15:25.489Z,0.40
2023-01-05T02:18:09.536Z,0.20
2023-01-05T02:20:48.655Z,0.50
2023-01-05T02:23:46.310Z,0.20
2023-01-05T02:26:39.677Z,0.30
2023-01-05T02:29:27.846Z,0.20
2023-01-05T02:32:02.850Z,0.28
2023-01-05T02:34:37.405Z,0.30
2023-01-05T02:37:12.245Z,0.30
2023-01-05T02:39:46.999Z,0.38
2023-01-05T02:42:19.248Z,0.30
2023-01-05T02:44:47.683Z,0.40
2023-01-05T02:47:38.735Z,0.30
2023-01-05T02:50:12.884Z,0.40
2023-01-05T02:52:45.603Z,0.50
2023-01-05T02:55:18.078Z,0.55
2023-01-05T02:57:50.796Z,0.40
2023-01-05T03:00:23.324Z,0.30
2023-01-05T03:02:56.823Z,0.38
2023-01-05T03:05:29.710Z,0.20
2023-01-05T03:08:06.959Z,0.20
2023-01-05T03:11:00.531Z,0.50
2023-01-05T03:13:43.764Z,0.20
2023-01-05T03:16:16.972Z,0.22
2023-01-05T03:19:04.715Z,0.30
2023-01-05T03:21:50.890Z,0.22
2023-01-05T03:24:36.569Z,0.30
2023-01-05T03:27:25.075Z,0.20
2023-01-05T03:30:11.421Z,0.20
2023-01-05T03:33:06.368Z,0.30
2023-01-05T03:35:41.783Z,0.30
2023-01-05T03:38:18.307Z,0.30
2023-01-05T03:40:47.499Z,0.30
2023-01-05T03:43:15.810Z,0.20
2023-01-05T03:45:46.202Z,0.40
2023-01-05T03:48:14.177Z,0.20
2023-01-05T03:50:43.392Z,0.35
2023-01-05T03:53:11.283Z,0.20
2023-01-05T03:55:39.244Z,0.30
2023-01-05T03:58:07.180Z,0.25
2023-01-05T04:00:35.032Z,0.40
2023-01-05T04:03:02.950Z,0.25
2023-01-05T04:05:30.935Z,0.20
2023-01-05T04:08:00.366Z,0.20
2023-01-05T04:10:28.256Z,0.20
2023-01-05T04:12:56.365Z,0.30
2023-01-05T04:15:24.305Z,0.30
2023-01-05T04:17:52.276Z,0.30
2023-01-05T04:20:20.525Z,0.20
2023-01-05T04:22:48.435Z,0.20
2023-01-05T04:25:17.847Z,0.30
2023-01-05T04:27:45.760Z,0.30
2023-01-05T04:30:13.826Z,0.30
2023-01-05T04:32:41.685Z,0.30
2023-01-05T04:35:11.479Z,0.20
2023-01-05T04:37:40.072Z,0.20
2023-01-05T04:40:09.157Z,0.30
2023-01-05T04:42:38.338Z,0.30
2023-01-05T04:45:06.883Z,0.40
2023-01-05T04:47:34.764Z,0.50
2023-01-05T04:50:02.649Z,0.30
2023-01-05T04:52:30.532Z,0.22
2023-01-05T04:54:58.518Z,0.32
2023-01-05T04:57:26.449Z,0.20
2023-01-05T04:59:55.656Z,0.40
2023-01-05T05:02:23.712Z,0.20
2023-01-05T05:04:51.706Z,0.40
2023-01-05T05:07:19.851Z,0.20
2023-01-05T05:09:47.799Z,0.38
2023-01-05T05:12:15.666Z,0.30
2023-01-05T05:14:43.565Z,0.40
2023-01-05T05:17:12.732Z,0.25
2023-01-05T05:19:40.588Z,0.28
2023-01-05T05:22:08.439Z,0.20
2023-01-05T05:24:36.278Z,0.30
2023-01-05T05:27:04.218Z,0.20
2023-01-05T05:29:32.328Z,0.30
2023-01-05T05:32:00.184Z,0.20
2023-01-05T05:34:29.454Z,0.20
2023-01-05T05:36:57.301Z,0.68
2023-01-05T05:39:25.185Z,0.40
2023-01-05T05:41:53.019Z,0.30
2023-01-05T05:44:20.985Z,0.30
2023-01-05T05:46:48.845Z,0.30
2023-01-05T05:49:16.775Z,0.40
2023-01-05T05:51:46.015Z,0.30
2023-01-05T05:54:13.905Z,0.30
2023-01-05T05:56:41.738Z,0.30
2023-01-05T05:59:09.830Z,0.20
2023-01-05T06:01:37.797Z,0.30
2023-01-05T06:04:06.028Z,0.50
2023-01-05T06:06:33.891Z,0.30
2023-01-05T06:09:03.102Z,0.30
2023-01-05T06:11:31.051Z,0.32
2023-01-05T06:13:59.177Z,0.28
2023-01-05T06:16:27.059Z,0.20
2023-01-05T06:18:54.918Z,0.20
2023-01-05T06:21:22.803Z,0.30
2023-01-05T06:23:50.761Z,0.30
2023-01-05T06:26:19.965Z,0.30
2023-01-05T06:28:47.859Z,0.30
2023-01-05T06:31:15.900Z,0.30
2023-01-05T06:33:43.814Z,0.20
2023-01-05T06:36:11.700Z,0.20
2023-01-05T06:38:39.585Z,0.20
2023-01-05T06:41:07.599Z,0.30
2023-01-05T06:43:36.837Z,0.40
2023-01-05T06:46:04.971Z,0.30
2023-01-05T06:48:32.897Z,0.43
2023-01-05T06:51:00.748Z,1.85
2023-01-05T06:53:28.659Z,0.28
2023-01-05T06:55:56.531Z,0.30
2023-01-05T06:58:24.524Z,0.55
2023-01-05T07:00:54.979Z,0.40
2023-01-05T07:03:23.723Z,0.45
2023-01-05T07:05:52.512Z,0.50
2023-01-05T07:08:20.440Z,0.40
2023-01-05T07:10:48.266Z,0.30
2023-01-05T07:13:16.102Z,0.40
2023-01-05T07:15:44.038Z,0.35
2023-01-05T07:18:13.287Z,0.30
2023-01-05T07:20:41.352Z,0.30
2023-01-05T07:23:09.213Z,0.55
2023-01-05T07:25:37.265Z,0.30
2023-01-05T07:28:05.488Z,0.40
2023-01-05T07:30:33.384Z,0.50
2023-01-05T07:33:01.868Z,0.55
2023-01-05T07:35:31.041Z,0.60
2023-01-05T07:37:59.200Z,0.60
2023-01-05T07:40:27.157Z,1.00
2023-01-05T07:42:55.603Z,0.55
2023-01-05T07:45:23.717Z,0.82
2023-01-05T07:47:51.676Z,1.45
2023-01-05T07:50:19.543Z,0.80
2023-01-05T07:52:48.773Z,1.05
2023-01-05T07:55:16.729Z,0.80
2023-01-05T07:57:44.722Z,1.10
2023-01-05T08:00:14.798Z,0.82
2023-01-05T08:02:43.138Z,0.95
2023-01-05T08:05:11.096Z,1.15
2023-01-05T08:07:39.112Z,0.90
2023-01-05T08:10:26.643Z,1.00
2023-01-05T08:13:12.214Z,1.10
2023-01-05T08:15:40.763Z,0.93
2023-01-05T08:18:10.542Z,1.27
2023-01-05T08:20:38.460Z,1.20
2023-01-05T08:23:06.337Z,1.42
2023-01-05T08:25:35.803Z,1.38
2023-01-05T08:28:03.652Z,1.95
2023-01-05T08:30:32.201Z,1.52
2023-01-05T08:33:00.095Z,1.60
2023-01-05T08:35:28.027Z,1.67
2023-01-05T08:37:55.884Z,1.58
2023-01-05T08:40:25.152Z,2.13
2023-01-05T08:42:54.351Z,1.63
2023-01-05T08:45:22.194Z,1.83
2023-01-05T08:47:50.067Z,1.80
2023-01-05T08:50:18.010Z,1.50
2023-01-05T08:52:45.913Z,2.08
2023-01-05T08:55:13.816Z,2.90
2023-01-05T08:57:41.710Z,3.00
2023-01-05T09:00:12.611Z,1.52
2023-01-05T09:02:40.754Z,2.33
2023-01-05T09:05:09.331Z,2.75
2023-01-05T09:07:37.818Z,2.00
2023-01-05T09:10:07.730Z,2.10
2023-01-05T09:12:36.388Z,2.88
2023-01-05T09:15:06.308Z,2.20
2023-01-05T09:17:37.206Z,2.42
2023-01-05T09:20:07.447Z,2.28
2023-01-05T09:22:36.227Z,2.55
2023-01-05T09:25:04.576Z,2.30
2023-01-05T09:27:32.486Z,2.25
2023-01-05T09:30:00.449Z,2.85
2023-01-05T09:32:28.341Z,2.85
2023-01-05T09:34:57.522Z,2.17
2023-01-05T09:37:25.396Z,2.45
2023-01-05T09:39:53.284Z,2.53
2023-01-05T09:42:26.650Z,3.22
2023-01-05T09:45:01.391Z,2.58
2023-01-05T09:47:33.765Z,4.03
2023-01-05T09:50:03.736Z,2.20
2023-01-05T09:52:37.819Z,3.33
2023-01-05T09:55:15.125Z,3.85
2023-01-05T09:57:44.449Z,2.83
2023-01-05T10:00:16.771Z,2.17
2023-01-05T10:02:50.954Z,2.88
2023-01-05T10:05:22.112Z,2.88
2023-01-05T10:07:54.511Z,2.70
2023-01-05T10:10:32.986Z,4.30
2023-01-05T10:13:03.271Z,2.28
2023-01-05T10:15:39.496Z,3.05
2023-01-05T10:18:13.537Z,2.15
2023-01-05T10:20:51.133Z,2.90
2023-01-05T10:23:33.271Z,3.17
2023-01-05T10:26:06.281Z,2.30
2023-01-05T10:28:41.017Z,2.45
2023-01-05T10:31:15.603Z,2.35
2023-01-05T10:33:53.571Z,2.85
2023-01-05T10:37:07.798Z,3.13
2023-01-05T10:39:57.078Z,2.10
2023-01-05T10:42:46.422Z,2.28
2023-01-05T10:45:15.763Z,2.28
2023-01-05T10:47:46.055Z,2.90
2023-01-05T10:50:36.677Z,2.40
2023-01-05T10:53:11.611Z,2.00
2023-01-05T10:55:45.855Z,2.13
2023-01-05T10:58:27.706Z,2.60
2023-01-05T11:00:58.195Z,2.80
2023-01-05T11:04:14.275Z,2.17
2023-01-05T11:06:25.036Z,1.67
2023-01-05T11:08:55.152Z,2.55
2023-01-05T11:11:25.667Z,2.63
2023-01-05T11:13:57.133Z,2.97
2023-01-05T11:16:27.732Z,2.35
2023-01-05T11:18:58.736Z,2.30
2023-01-05T11:21:28.918Z,2.17
2023-01-05T11:24:00.004Z,3.35
2023-01-05T11:26:31.408Z,3.20
2023-01-05T11:29:14.142Z,2.10
2023-01-05T11:31:48.736Z,3.28
2023-01-05T11:34:35.416Z,3.45
2023-01-05T11:37:08.406Z,2.90
2023-01-05T11:39:43.136Z,3.70
2023-01-05T11:42:23.155Z,2.83
2023-01-05T11:44:56.115Z,3.17
2023-01-05T11:47:28.494Z,2.97
2023-01-05T11:50:07.001Z,2.97
2023-01-05T11:52:38.902Z,2.80
2023-01-05T11:55:30.507Z,2.83
2023-01-05T11:58:15.475Z,2.92
2023-01-05T12:00:58.455Z,3.38
2023-01-05T12:03:41.653Z,3.22
2023-01-05T12:06:24.154Z,3.38
2023-01-05T12:08:58.368Z,2.25
2023-01-05T12:11:33.059Z,2.40
2023-01-05T12:14:14.941Z,2.65
2023-01-05T12:16:47.683Z,2.50
2023-01-05T12:19:43.389Z,3.35
2023-01-05T12:22:35.115Z,3.28
2023-01-05T12:25:19.503Z,2.67
2023-01-05T12:28:05.883Z,3.40
2023-01-05T12:32:48.028Z,4.07
2023-01-05T12:34:11.377Z,3.08
2023-01-05T12:36:56.496Z,2.60
2023-01-05T12:39:43.957Z,3.33
2023-01-05T12:42:44.988Z,2.90
2023-01-05T12:46:03.628Z,2.60
2023-01-05T12:48:34.968Z,2.58
2023-01-05T12:51:09.625Z,2.67
2023-01-05T12:53:45.658Z,2.75
2023-01-05T12:56:21.189Z,2.63
2023-01-05T12:58:58.075Z,3.65
2023-01-05T13:01:32.575Z,3.88
2023-01-05T13:04:04.869Z,3.42
2023-01-05T13:06:38.119Z,2.42
2023-01-05T13:09:13.649Z,2.92
2023-01-05T13:11:46.896Z,2.78
2023-01-05T13:14:19.095Z,2.92
2023-01-05T13:16:58.223Z,3.25
2023-01-05T13:19:31.180Z,3.22
2023-01-05T13:22:02.638Z,4.00
2023-01-05T13:24:36.502Z,3.25
2023-01-05T13:27:04.862Z,2.75
2023-01-05T13:29:36.125Z,3.55
2023-01-05T13:35:26.376Z,3.17
2023-01-05T13:38:20.221Z,2.58
2023-01-05T13:41:25.109Z,3.17
2023-01-05T13:44:29.948Z,3.50
2023-01-05T13:47:23.808Z,3.33
2023-01-05T13:50:31.797Z,3.00
2023-01-05T13:53:06.682Z,3.58
2023-01-05T13:55:39.259Z,3.05
2023-01-05T13:58:19.880Z,3.35
2023-01-05T14:00:53.102Z,3.60
2023-01-05T14:03:23.960Z,2.53
2023-01-05T14:05:56.443Z,3.85
2023-01-05T14:08:32.500Z,2.50
2023-01-05T14:11:13.471Z,3.13
2023-01-05T14:13:49.921Z,3.13
2023-01-05T14:16:52.298Z,3.22
2023-01-05T14:19:25.914Z,3.05
2023-01-05T14:22:06.554Z,2.90
2023-01-05T14:24:36.776Z,2.67
2023-01-05T14:27:07.932Z,3.08
2023-01-05T14:30:21.147Z,3.20
2023-01-05T14:32:53.344Z,3.30
2023-01-05T14:35:25.866Z,3.22
2023-01-05T14:38:00.270Z,3.42
2023-01-05T14:40:40.181Z,3.38
2023-01-05T14:43:23.560Z,3.35
2023-01-05T14:46:04.639Z,3.63
2023-01-05T14:48:37.449Z,3.53
2023-01-05T14:51:18.967Z,2.90
2023-01-05T14:53:50.265Z,3.10
2023-01-05T14:56:22.624Z,4.75
2023-01-05T14:59:19.807Z,2.65
2023-01-05T15:01:52.361Z,3.03
2023-01-05T15:04:26.121Z,3.35
2023-01-05T15:07:12.886Z,2.95
2023-01-05T15:10:05.668Z,2.58
2023-01-05T15:12:52.262Z,3.60
2023-01-05T15:15:43.489Z,2.60
2023-01-05T15:18:37.704Z,2.95
2023-01-05T15:21:29.793Z,3.63
2023-01-05T15:24:22.932Z,3.15
2023-01-05T15:27:20.107Z,2.95
2023-01-05T15:30:11.898Z,2.60
2023-01-05T15:32:43.709Z,2.65
2023-01-05T15:35:17.705Z,2.72
2023-01-05T15:37:47.216Z,3.03
2023-01-05T15:40:29.165Z,2.70
2023-01-05T15:43:02.490Z,3.15
2023-01-05T15:45:32.698Z,2.80
2023-01-05T15:48:08.430Z,3.22
2023-01-05T15:50:44.729Z,3.30
2023-01-05T15:53:27.009Z,2.80
2023-01-05T15:55:54.970Z,2.78
2023-01-05T15:58:26.653Z,3.45
2023-01-05T16:01:03.178Z,3.25
2023-01-05T16:03:33.530Z,3.22
2023-01-05T16:06:03.722Z,3.35
2023-01-05T16:08:34.585Z,3.33
2023-01-05T16:11:06.039Z,2.97
2023-01-05T16:13:38.370Z,2.83
2023-01-05T16:16:15.893Z,3.60
2023-01-05T16:18:51.815Z,3.30
2023-01-05T16:21:25.183Z,3.00
2023-01-05T16:23:57.029Z,4.95
2023-01-05T16:26:25.371Z,3.60
2023-01-05T16:28:54.628Z,3.45
2023-01-05T16:31:29.361Z,4.45
2023-01-05T16:34:05.445Z,3.35
2023-01-05T16:36:33.386Z,3.13
2023-01-05T16:39:14.652Z,4.68
2023-01-05T16:42:03.716Z,3.38
2023-01-05T16:44:36.115Z,3.38
2023-01-05T16:47:09.028Z,3.97
2023-01-05T16:49:49.880Z,3.03
2023-01-05T16:52:28.969Z,4.28
2023-01-05T16:55:28.393Z,2.72
2023-01-05T16:57:57.299Z,3.47
2023-01-05T17:00:38.695Z,4.03
2023-01-05T17:03:31.454Z,3.78
2023-01-05T17:06:01.221Z,3.83
2023-01-05T17:08:31.940Z,3.03
2023-01-05T17:11:01.425Z,3.55
2023-01-05T17:13:36.646Z,3.55
2023-01-05T17:16:06.520Z,2.97
2023-01-05T17:18:34.406Z,3.38
2023-01-05T17:21:05.472Z,3.53
2023-01-05T17:23:36.097Z,5.95
2023-01-05T17:26:08.801Z,3.28
2023-01-05T17:28:36.726Z,3.45
2023-01-05T17:31:06.578Z,3.15
2023-01-05T17:33:34.605Z,2.90
2023-01-05T17:36:03.656Z,3.42
2023-01-05T17:38:31.603Z,4.10
2023-01-05T17:40:59.547Z,2.47
2023-01-05T17:43:27.512Z,3.10
2023-01-05T17:45:55.757Z,2.72
2023-01-05T17:48:25.140Z,2.55
2023-01-05T17:50:54.267Z,2.88
2023-01-05T17:53:22.451Z,2.50
2023-01-05T17:55:50.338Z,2.22
2023-01-05T17:58:18.187Z,3.08
2023-01-05T18:03:17.166Z,2.28
2023-01-05T18:05:46.556Z,2.25
2023-01-05T18:08:15.402Z,2.10
2023-01-05T18:10:43.302Z,2.33
2023-01-05T18:13:11.559Z,3.03
2023-01-05T18:15:43.141Z,1.67
2023-01-05T18:18:11.787Z,2.65
2023-01-05T18:20:41.480Z,2.95
2023-01-05T18:23:10.991Z,2.75
2023-01-05T18:25:40.147Z,2.35
2023-01-05T18:28:08.021Z,3.03
2023-01-05T18:30:36.519Z,1.95
2023-01-05T18:33:04.395Z,2.85
2023-01-05T18:35:32.275Z,2.83
2023-01-05T18:38:02.577Z,2.83
2023-01-05T18:40:31.839Z,2.40
2023-01-05T18:42:59.772Z,2.30
2023-01-05T18:45:38.288Z,2.63
2023-01-05T18:48:07.252Z,2.58
2023-01-05T18:50:36.069Z,2.03
2023-01-05T18:53:03.916Z,1.98
2023-01-05T18:55:33.500Z,1.80
2023-01-05T18:58:01.438Z,1.95
2023-01-05T19:00:29.786Z,1.58
2023-01-05T19:02:57.722Z,1.60
2023-01-05T19:05:25.553Z,1.70
2023-01-05T19:07:53.841Z,1.98
2023-01-05T19:10:21.943Z,2.15
2023-01-05T19:12:51.276Z,2.42
2023-01-05T19:15:19.163Z,1.80
2023-01-05T19:17:49.363Z,2.08
2023-01-05T19:20:17.523Z,2.00
2023-01-05T19:22:47.846Z,1.63
2023-01-05T19:25:15.907Z,1.63
2023-01-05T19:27:45.077Z,1.83
2023-01-05T19:30:17.018Z,2.10
2023-01-05T19:32:45.245Z,2.08
2023-01-05T19:35:13.147Z,1.58
2023-01-05T19:37:42.377Z,1.85
2023-01-05T19:40:12.119Z,1.80
2023-01-05T19:42:40.089Z,1.70
2023-01-05T19:45:10.062Z,1.70
2023-01-05T19:47:40.823Z,2.67
2023-01-05T19:50:10.807Z,1.77
2023-01-05T19:52:39.235Z,1.73
2023-01-05T19:55:10.288Z,3.03
2023-01-05T19:57:38.195Z,2.65
2023-01-05T20:00:07.628Z,2.03
2023-01-05T20:02:35.547Z,2.20
2023-01-05T20:05:05.328Z,2.15
2023-01-05T20:07:33.339Z,1.63
2023-01-05T20:10:01.436Z,2.03
2023-01-05T20:12:29.282Z,1.85
2023-01-05T20:14:57.212Z,1.50
2023-01-05T20:17:25.095Z,1.80
2023-01-05T20:19:52.984Z,1.60
2023-01-05T20:22:22.683Z,1.58
2023-01-05T20:24:50.521Z,1.40
2023-01-05T20:27:18.875Z,1.60
2023-01-05T20:29:46.943Z,1.42
2023-01-05T20:32:17.299Z,1.15
2023-01-05T20:34:46.569Z,1.30
2023-01-05T20:37:14.469Z,1.50
2023-01-05T20:39:44.046Z,1.40
2023-01-05T20:42:13.987Z,1.27
2023-01-05T20:44:46.464Z,1.40
2023-01-05T20:47:15.860Z,1.33
2023-01-05T20:49:45.179Z,1.25
2023-01-05T20:52:15.387Z,1.38
2023-01-05T20:54:45.689Z,1.10
2023-01-05T20:57:13.769Z,1.27
2023-01-05T20:59:41.799Z,1.45
2023-01-05T21:02:22.816Z,1.48
2023-01-05T21:04:52.212Z,1.27
2023-01-05T21:07:20.313Z,1.42
2023-01-05T21:09:51.165Z,1.40
2023-01-05T21:12:19.613Z,1.20
2023-01-05T21:14:47.528Z,1.30
2023-01-05T21:17:15.519Z,1.10
2023-01-05T21:19:44.315Z,1.35
2023-01-05T21:22:12.308Z,1.40
2023-01-05T21:24:40.973Z,1.40
2023-01-05T21:27:10.214Z,1.23
2023-01-05T21:29:38.081Z,1.30
2023-01-05T21:32:06.546Z,1.83
2023-01-05T21:34:34.987Z,1.10
2023-01-05T21:37:03.185Z,1.90
2023-01-05T21:39:31.430Z,1.73
2023-01-05T21:42:17.017Z,1.63
2023-01-05T21:44:46.256Z,1.60
2023-01-05T21:47:14.616Z,1.55
2023-01-05T21:49:42.499Z,1.40
2023-01-05T21:52:29.223Z,1.60
2023-01-05T21:55:26.638Z,1.67
2023-01-05T21:57:54.928Z,1.52
2023-01-05T22:00:24.548Z,1.50
2023-01-05T22:02:52.448Z,1.48
2023-01-05T22:05:20.696Z,1.40
2023-01-05T22:07:48.581Z,1.90
2023-01-05T22:10:17.775Z,1.65
2023-01-05T22:12:45.951Z,1.48
2023-01-05T22:15:13.876Z,1.60
2023-01-05T22:17:43.873Z,1.67
2023-01-05T22:20:13.723Z,1.70
2023-01-05T22:22:41.624Z,4.53
2023-01-05T22:25:10.334Z,1.35
2023-01-05T22:27:38.278Z,2.10
2023-01-05T22:30:07.263Z,1.30
2023-01-05T22:32:35.863Z,1.45
2023-01-05T22:35:05.894Z,1.60
2023-01-05T22:37:33.771Z,1.35
2023-01-05T22:40:01.715Z,1.60
2023-01-05T22:42:29.657Z,1.63
2023-01-05T22:44:57.535Z,1.65
2023-01-05T22:47:26.811Z,1.30
2023-01-05T22:49:54.901Z,1.50
2023-01-05T22:52:24.887Z,1.73
2023-01-05T22:54:53.279Z,1.70
2023-01-05T22:57:21.159Z,2.72
2023-01-05T22:59:49.054Z,1.73
2023-01-05T23:02:16.970Z,1.30
2023-01-05T23:04:44.895Z,1.70
2023-01-05T23:07:12.794Z,1.50
2023-01-05T23:09:42.249Z,1.60
2023-01-05T23:12:11.947Z,1.50
2023-01-05T23:14:39.919Z,1.80
2023-01-05T23:17:12.129Z,1.50
2023-01-05T23:19:40.329Z,1.92
2023-01-05T23:22:10.750Z,1.27
2023-01-05T23:24:41.325Z,2.08
2023-01-05T23:27:09.957Z,1.40
2023-01-05T23:29:38.186Z,1.67
2023-01-05T23:32:06.506Z,1.50
2023-01-05T23:34:34.771Z,1.80
2023-01-05T23:37:02.909Z,1.63
2023-01-05T23:39:30.756Z,1.70
2023-01-05T23:41:59.961Z,1.67
2023-01-05T23:44:27.782Z,1.67
2023-01-05T23:46:55.648Z,1.40
2023-01-05T23:49:23.499Z,2.05
2023-01-05T23:51:51.466Z,2.05
2023-01-05T23:54:19.488Z,2.13
2023-01-05T23:56:47.341Z,1.88
2023-01-05T23:59:16.565Z,1.73
